Time;durP1;ratioP1;P1;durP2;ratioP2;P2;SDS_P1;SDS_P2;PMS_P1;PMS_P2;Temp;Humidity;BMP_temperature;BMP_pressure;BME280_temperature;BME280_humidity;BME280_pressure;Samples;Min_cycle;Max_cycle;Signal;HPM_P1;HPM_P2
2024/03/16 00:01:55;;;;;;;1.40;1.13;;;22.20;80.40;;;;;;5028467;28;20447;-39
2024/03/16 00:04:25;;;;;;;2.00;1.73;;;22.20;80.60;;;;;;5028162;28;20854;-39
2024/03/16 00:06:52;;;;;;;1.63;1.30;;;22.20;80.90;;;;;;5025512;28;20902;-38
2024/03/16 00:09:23;;;;;;;3.10;1.50;;;22.10;80.80;;;;;;5027300;28;20488;-40
2024/03/16 00:11:53;;;;;;;2.33;1.50;;;22.10;80.80;;;;;;5028509;28;20454;-39
2024/03/16 00:14:23;;;;;;;1.80;1.60;;;22.00;80.40;;;;;;5029995;28;20555;-38
2024/03/16 00:16:52;;;;;;;2.13;1.40;;;22.10;80.40;;;;;;5032806;28;21146;-39
2024/03/16 00:19:23;;;;;;;1.87;1.40;;;22.10;80.60;;;;;;5030501;28;20546;-38
2024/03/16 00:21:53;;;;;;;1.87;1.30;;;22.00;80.20;;;;;;5029204;28;20484;-39
2024/03/16 00:24:25;;;;;;;1.37;1.27;;;22.10;80.30;;;;;;5022500;28;20845;-39
2024/03/16 00:26:57;;;;;;;1.60;1.40;;;22.00;80.10;;;;;;5027871;28;20606;-39
2024/03/16 00:29:24;;;;;;;1.47;1.20;;;21.90;79.90;;;;;;5037925;28;21470;-39
2024/03/16 00:31:51;;;;;;;3.40;1.60;;;22.00;80.10;;;;;;5026882;28;20468;-39
2024/03/16 00:34:18;;;;;;;2.77;1.70;;;21.80;79.80;;;;;;5033369;28;20495;-40
2024/03/16 00:36:47;;;;;;;1.80;1.50;;;21.90;79.60;;;;;;5023539;28;21070;-39
2024/03/16 00:39:18;;;;;;;2.40;1.50;;;21.90;79.90;;;;;;5027373;28;20987;-39
2024/03/16 00:41:47;;;;;;;2.57;1.60;;;21.80;79.50;;;;;;5024867;28;20497;-39
2024/03/16 00:44:24;;;;;;;;;;;;;;;;;;;;;
2024/03/16 00:46:51;;;;;;;2.43;1.63;;;21.70;79.60;;;;;;5029510;28;20440;-39
2024/03/16 00:49:24;;;;;;;1.73;1.40;;;21.80;79.60;;;;;;5028233;28;20460;-39
2024/03/16 00:51:51;;;;;;;2.00;1.73;;;21.70;79.40;;;;;;5027494;28;20501;-38
2024/03/16 00:54:25;;;;;;;3.40;1.70;;;21.70;79.30;;;;;;5027777;28;21033;-39
2024/03/16 00:56:53;;;;;;;3.33;1.93;;;21.60;79.40;;;;;;5023279;28;20465;-38
2024/03/16 00:59:24;;;;;;;1.87;1.20;;;21.70;79.20;;;;;;5024865;28;20511;-39
2024/03/16 01:01:52;;;;;;;1.87;1.37;;;21.70;79.30;;;;;;5025570;28;20750;-39
2024/03/16 01:04:25;;;;;;;2.30;1.60;;;21.70;79.30;;;;;;5019309;28;21241;-39
2024/03/16 01:06:54;;;;;;;2.60;1.80;;;21.60;79.40;;;;;;5022342;28;20470;-38
2024/03/16 01:09:26;;;;;;;2.33;1.50;;;21.60;79.40;;;;;;5023108;28;20450;-39
2024/03/16 01:11:53;;;;;;;1.88;1.45;;;21.60;79.30;;;;;;5021485;28;21361;-39
2024/03/16 01:14:23;;;;;;;1.57;1.33;;;21.50;79.50;;;;;;5021199;28;21085;-39
2024/03/16 01:16:52;;;;;;;1.90;1.35;;;21.50;79.80;;;;;;5020554;28;20472;-39
2024/03/16 01:19:36;;;;;;;2.10;1.20;;;21.40;80.00;;;;;;5026225;28;21132;-39
2024/03/16 01:22:04;;;;;;;2.07;1.57;;;21.40;80.00;;;;;;5020855;28;20468;-39
2024/03/16 01:24:32;;;;;;;3.55;2.00;;;21.40;79.70;;;;;;5025288;28;21158;-38
2024/03/16 01:27:02;;;;;;;1.80;1.30;;;21.40;79.60;;;;;;5027238;28;20305;-39
2024/03/16 01:29:38;;;;;;;2.47;1.60;;;21.40;79.40;;;;;;5030591;28;20459;-38
2024/03/16 01:32:09;;;;;;;1.80;1.10;;;21.40;79.30;;;;;;5020717;28;20194;-39
2024/03/16 01:34:46;;;;;;;2.42;1.60;;;21.30;79.50;;;;;;5026539;28;20538;-39
2024/03/16 01:37:14;;;;;;;1.95;1.75;;;21.30;79.70;;;;;;5031501;28;20190;-39
2024/03/16 01:39:45;;;;;;;2.15;1.40;;;21.30;79.70;;;;;;5033984;28;20222;-39
2024/03/16 01:42:13;;;;;;;2.20;1.53;;;21.30;79.80;;;;;;5035244;28;20194;-40
2024/03/16 01:44:46;;;;;;;3.38;1.50;;;21.20;79.70;;;;;;5019218;28;20484;-40
2024/03/16 01:47:13;;;;;;;1.50;1.23;;;21.20;79.80;;;;;;5024317;28;20195;-38
2024/03/16 01:49:40;;;;;;;1.80;1.30;;;21.20;80.00;;;;;;5027358;28;20718;-39
2024/03/16 01:52:08;;;;;;;1.50;1.30;;;21.20;80.10;;;;;;5044886;28;20214;-39
2024/03/16 01:54:35;;;;;;;1.38;1.23;;;21.20;80.30;;;;;;5028542;28;20236;-39
2024/03/16 01:57:08;;;;;;;2.47;1.47;;;21.10;80.30;;;;;;5025565;28;20202;-39
2024/03/16 01:59:35;;;;;;;1.77;1.30;;;21.10;81.20;;;;;;5038292;28;20466;-39
2024/03/16 02:02:04;;;;;;;2.95;1.80;;;21.10;80.40;;;;;;5020658;28;20296;-40
2024/03/16 02:04:31;;;;;;;2.20;1.40;;;21.10;80.30;;;;;;5029301;28;20856;-37
2024/03/16 02:07:08;;;;;;;2.10;1.20;;;21.00;80.50;;;;;;5023060;28;20750;-39
2024/03/16 02:09:36;;;;;;;2.00;1.67;;;21.00;80.60;;;;;;5024222;28;20200;-39
2024/03/16 02:12:07;;;;;;;1.85;1.20;;;21.00;80.90;;;;;;5022923;28;20249;-39
2024/03/16 02:14:34;;;;;;;2.47;1.20;;;20.90;81.10;;;;;;5026245;28;20198;-39
2024/03/16 02:17:02;;;;;;;1.73;1.23;;;21.00;81.10;;;;;;5023376;28;20214;-39
2024/03/16 02:19:32;;;;;;;1.40;1.10;;;20.90;81.10;;;;;;5024726;28;20202;-40
2024/03/16 02:22:07;;;;;;;1.60;1.50;;;20.80;81.10;;;;;;5018478;28;20229;-39
2024/03/16 02:24:42;;;;;;;2.30;1.40;;;20.80;81.30;;;;;;5027896;28;20304;-39
2024/03/16 02:27:09;;;;;;;1.50;1.17;;;20.80;81.40;;;;;;5039270;28;20217;-39
2024/03/16 02:29:49;;;;;;;;;;;;;;;;;;;;;
2024/03/16 02:32:20;;;;;;;1.80;1.40;;;20.80;81.60;;;;;;5041081;28;20210;-39
2024/03/16 02:34:47;;;;;;;1.75;1.10;;;20.70;81.70;;;;;;5024258;28;20203;-39
2024/03/16 02:37:19;;;;;;;1.60;1.30;;;20.70;81.80;;;;;;5018644;28;20198;-39
2024/03/16 02:39:52;;;;;;;1.30;1.10;;;20.70;82.20;;;;;;5026565;28;20195;-38
2024/03/16 02:42:25;;;;;;;3.58;1.60;;;20.70;82.70;;;;;;5038442;28;20270;-40
2024/03/16 02:44:52;;;;;;;3.03;1.55;;;20.70;83.40;;;;;;5024642;28;20217;-39
2024/03/16 02:47:24;;;;;;;1.38;1.13;;;20.70;83.70;;;;;;5023126;28;20205;-39
2024/03/16 02:49:52;;;;;;;1.40;1.10;;;20.70;84.20;;;;;;5029318;28;20199;-38
2024/03/16 02:52:20;;;;;;;1.70;1.33;;;20.60;84.50;;;;;;5014929;28;20209;-39
2024/03/16 02:54:50;;;;;;;2.05;1.27;;;20.70;85.50;;;;;;5034544;28;20203;-39
2024/03/16 02:57:17;;;;;;;2.00;1.45;;;20.50;87.10;;;;;;5037202;28;20203;-38
2024/03/16 02:59:45;;;;;;;2.20;1.38;;;20.50;88.60;;;;;;5025762;28;20198;-39
2024/03/16 03:02:14;;;;;;;1.38;1.27;;;20.60;89.90;;;;;;5036644;28;20253;-39
2024/03/16 03:04:45;;;;;;;2.33;1.30;;;20.50;90.70;;;;;;5042073;28;20198;-39
2024/03/16 03:07:14;;;;;;;1.27;1.00;;;20.40;87.40;;;;;;5023732;28;20194;-39
2024/03/16 03:09:42;;;;;;;1.83;1.27;;;20.60;86.30;;;;;;5043141;28;20202;-39
2024/03/16 03:12:10;;;;;;;2.90;2.03;;;20.40;84.80;;;;;;5042567;28;20199;-40
2024/03/16 03:14:40;;;;;;;1.80;1.48;;;20.50;84.50;;;;;;5027875;28;20218;-39
2024/03/16 03:17:09;;;;;;;2.00;1.27;;;20.50;85.40;;;;;;5028424;28;20228;-39
2024/03/16 03:19:42;;;;;;;1.65;1.30;;;20.30;85.70;;;;;;5023501;28;20198;-39
2024/03/16 03:22:15;;;;;;;1.40;1.00;;;20.40;86.00;;;;;;5029698;28;20275;-39
2024/03/16 03:24:42;;;;;;;2.15;1.67;;;20.50;86.00;;;;;;5026324;28;20243;-39
2024/03/16 03:27:14;;;;;;;1.80;1.58;;;20.40;86.30;;;;;;5043554;28;20682;-39
2024/03/16 03:29:40;;;;;;;2.40;1.50;;;20.40;86.20;;;;;;5027884;28;20285;-39
2024/03/16 03:32:09;;;;;;;1.40;1.20;;;20.30;85.90;;;;;;5023008;28;20612;-39
2024/03/16 03:34:40;;;;;;;2.30;1.30;;;20.40;86.40;;;;;;5042375;28;21100;-39
2024/03/16 03:37:12;;;;;;;1.63;1.35;;;20.40;86.90;;;;;;5024823;28;20201;-39
2024/03/16 03:39:38;;;;;;;1.85;1.27;;;20.20;86.90;;;;;;5030097;28;20277;-39
2024/03/16 03:42:06;;;;;;;1.70;1.40;;;20.20;87.20;;;;;;5027185;28;20199;-39
2024/03/16 03:44:38;;;;;;;1.60;1.40;;;20.20;86.80;;;;;;5029444;28;20924;-40
2024/03/16 03:47:07;;;;;;;1.85;1.13;;;20.30;87.20;;;;;;5023209;28;20205;-39
2024/03/16 03:49:40;;;;;;;2.03;1.17;;;20.10;87.00;;;;;;5024060;28;20337;-38
2024/03/16 03:52:10;;;;;;;2.33;1.40;;;20.30;87.30;;;;;;5031246;28;20199;-40
2024/03/16 03:54:45;;;;;;;1.50;1.08;;;20.10;87.20;;;;;;5026636;28;20202;-39
2024/03/16 03:57:11;;;;;;;2.00;1.50;;;20.10;87.30;;;;;;5033995;28;20197;-39
2024/03/16 03:59:40;;;;;;;2.78;1.90;;;20.20;87.50;;;;;;5025325;28;20194;-39
2024/03/16 04:02:14;;;;;;;1.65;1.10;;;20.10;87.90;;;;;;5015425;28;20198;-39
2024/03/16 04:04:42;;;;;;;2.35;1.30;;;20.00;87.90;;;;;;5023818;28;20243;-39
2024/03/16 04:07:08;;;;;;;1.70;1.20;;;20.20;88.50;;;;;;5017310;28;20252;-39
2024/03/16 04:09:35;;;;;;;1.83;1.45;;;20.00;88.40;;;;;;5036637;28;20195;-40
2024/03/16 04:12:02;;;;;;;1.80;1.50;;;19.90;88.80;;;;;;5021679;28;20337;-39
2024/03/16 04:14:32;;;;;;;1.70;1.60;;;20.20;89.70;;;;;;5034325;28;20770;-39
2024/03/16 04:17:00;;;;;;;2.38;1.60;;;20.00;89.60;;;;;;5025058;28;21001;-39
2024/03/16 04:19:29;;;;;;;1.35;1.15;;;19.90;90.00;;;;;;5034902;28;20913;-39
2024/03/16 04:22:00;;;;;;;2.13;1.60;;;20.00;90.20;;;;;;5021506;28;20568;-38
2024/03/16 04:24:36;;;;;;;1.50;1.13;;;19.80;90.40;;;;;;5024331;28;20252;-37
2024/03/16 04:27:04;;;;;;;1.70;1.20;;;20.00;90.30;;;;;;5037261;28;20217;-40
2024/03/16 04:29:31;;;;;;;1.48;1.38;;;19.90;90.30;;;;;;5038832;28;20967;-39
2024/03/16 04:31:58;;;;;;;1.60;1.27;;;20.00;89.50;;;;;;5026683;28;20721;-39
2024/03/16 04:34:26;;;;;;;1.48;1.10;;;19.90;89.90;;;;;;5033344;28;20202;-40
2024/03/16 04:36:53;;;;;;;1.63;1.20;;;20.00;90.10;;;;;;5017180;28;20203;-38
2024/03/16 04:39:21;;;;;;;1.42;1.30;;;20.00;90.00;;;;;;5025267;28;20198;-39
2024/03/16 04:41:48;;;;;;;1.48;1.17;;;19.80;90.20;;;;;;5021367;28;20195;-39
2024/03/16 04:47:00;;;;;;;1.52;1.08;;;19.90;90.40;;;;;;5023524;28;20222;-39
2024/03/16 04:49:26;;;;;;;2.03;1.42;;;19.90;90.00;;;;;;5018179;28;22287;-40
2024/03/16 04:51:53;;;;;;;1.90;1.50;;;19.90;89.80;;;;;;5013768;28;20198;-39
2024/03/16 04:54:24;;;;;;;2.05;1.33;;;19.90;88.80;;;;;;5030291;28;20706;-39
2024/03/16 04:56:50;;;;;;;2.60;1.17;;;19.70;88.20;;;;;;5016762;28;20675;-39
2024/03/16 04:59:18;;;;;;;2.17;1.60;;;19.90;88.70;;;;;;5016333;28;20198;-40
2024/03/16 05:01:48;;;;;;;2.63;1.50;;;19.80;88.70;;;;;;5020075;28;20198;-40
2024/03/16 05:04:18;;;;;;;1.52;1.30;;;19.70;88.50;;;;;;5016065;28;20820;-40
2024/03/16 05:06:45;;;;;;;1.85;1.35;;;19.80;88.50;;;;;;5036627;28;20261;-39
2024/03/16 05:09:13;;;;;;;1.60;1.25;;;19.70;88.50;;;;;;5015272;28;20202;-39
2024/03/16 05:11:41;;;;;;;1.40;1.30;;;19.70;88.50;;;;;;5017252;28;20204;-39
2024/03/16 05:14:10;;;;;;;1.23;1.13;;;19.70;88.50;;;;;;5023164;28;20198;-39
2024/03/16 05:16:45;;;;;;;1.67;1.10;;;19.70;88.60;;;;;;5024707;28;20651;-39
2024/03/16 05:19:11;;;;;;;2.03;1.42;;;19.70;88.90;;;;;;5013701;28;20233;-39
2024/03/16 05:21:43;;;;;;;1.60;1.10;;;19.70;89.10;;;;;;5025593;28;20577;-39
2024/03/16 05:24:14;;;;;;;1.52;1.40;;;19.60;89.10;;;;;;5029528;28;20836;-40
2024/03/16 05:26:44;;;;;;;2.75;1.58;;;19.50;89.10;;;;;;5026112;28;20992;-40
2024/03/16 05:29:14;;;;;;;1.80;1.20;;;19.60;89.30;;;;;;5022783;28;20678;-39
2024/03/16 05:31:55;;;;;;;2.83;1.55;;;19.60;89.50;;;;;;5028471;28;20315;-38
2024/03/16 05:34:27;;;;;;;4.70;1.27;;;19.60;89.80;;;;;;5018887;28;20209;-40
2024/03/16 05:37:00;;;;;;;1.35;1.20;;;19.60;89.80;;;;;;5013506;28;20276;-39
2024/03/16 05:39:32;;;;;;;1.30;1.00;;;19.50;89.30;;;;;;5024910;28;20220;-40
2024/03/16 05:41:59;;;;;;;1.30;1.00;;;19.50;89.60;;;;;;5027908;28;20297;-40
2024/03/16 05:44:29;;;;;;;1.30;1.00;;;19.60;89.80;;;;;;5025488;28;20966;-40
2024/03/16 05:46:56;;;;;;;1.42;1.08;;;19.60;90.00;;;;;;5032123;28;20218;-40
2024/03/16 05:49:27;;;;;;;2.20;1.40;;;19.60;90.20;;;;;;5022859;28;20217;-39
2024/03/16 05:51:59;;;;;;;1.65;1.08;;;19.60;90.20;;;;;;5026543;28;20562;-39
2024/03/16 05:54:35;;;;;;;1.48;1.13;;;19.50;90.20;;;;;;5027809;28;20515;-38
2024/03/16 05:57:03;;;;;;;1.10;0.90;;;19.40;90.10;;;;;;5032491;28;20204;-39
2024/03/16 05:59:34;;;;;;;1.58;1.20;;;19.40;90.20;;;;;;5028891;28;20211;-40
2024/03/16 06:02:00;;;;;;;1.25;1.00;;;19.50;90.60;;;;;;5033848;28;20194;-39
2024/03/16 06:04:27;;;;;;;1.50;1.20;;;19.40;90.20;;;;;;5044921;28;20710;-39
2024/03/16 06:06:57;;;;;;;1.42;1.10;;;19.40;90.30;;;;;;5027491;28;20222;-39
2024/03/16 06:09:32;;;;;;;1.60;1.50;;;19.50;90.30;;;;;;5022408;28;20199;-40
2024/03/16 06:12:02;;;;;;;1.52;1.30;;;19.40;90.30;;;;;;5028455;28;20202;-40
2024/03/16 06:14:30;;;;;;;2.55;1.88;;;19.30;90.30;;;;;;5024210;28;21077;-39
2024/03/16 06:17:07;;;;;;;2.10;1.20;;;19.30;90.30;;;;;;5041621;28;20760;-39
2024/03/16 06:19:34;;;;;;;1.33;1.20;;;19.40;90.30;;;;;;5019752;28;20193;-39
2024/03/16 06:22:02;;;;;;;1.35;1.25;;;19.40;90.30;;;;;;5012222;28;20201;-39
2024/03/16 06:24:30;;;;;;;1.52;1.25;;;19.30;90.40;;;;;;5025782;28;20267;-39
2024/03/16 06:27:04;;;;;;;2.00;1.20;;;19.30;90.30;;;;;;5034384;28;20223;-39
2024/03/16 06:29:34;;;;;;;1.60;1.10;;;19.30;90.30;;;;;;5024687;28;20234;-39
2024/03/16 06:32:06;;;;;;;1.67;1.10;;;19.30;90.40;;;;;;5029708;28;20809;-39
2024/03/16 06:34:33;;;;;;;2.00;1.35;;;19.30;90.40;;;;;;5025950;28;20198;-40
2024/03/16 06:37:00;;;;;;;1.45;1.00;;;19.30;90.50;;;;;;5030300;28;20490;-39
2024/03/16 06:39:27;;;;;;;1.20;1.00;;;19.30;90.60;;;;;;5027363;28;20686;-39
2024/03/16 06:41:57;;;;;;;4.20;1.20;;;19.40;90.70;;;;;;5025912;28;20659;-39
2024/03/16 06:44:27;;;;;;;1.95;1.65;;;19.20;90.80;;;;;;5025632;28;20198;-40
2024/03/16 06:46:59;;;;;;;1.55;1.23;;;19.40;91.00;;;;;;5025613;28;20215;-39
2024/03/16 06:49:33;;;;;;;1.45;1.20;;;19.30;91.00;;;;;;5025360;28;20199;-40
2024/03/16 06:52:01;;;;;;;1.50;1.10;;;19.20;91.10;;;;;;5034396;28;20303;-38
2024/03/16 06:54:32;;;;;;;1.42;1.05;;;19.30;91.10;;;;;;5025716;28;20321;-39
2024/03/16 06:57:04;;;;;;;2.10;1.65;;;19.10;91.20;;;;;;5022349;28;20263;-37
2024/03/16 06:59:31;;;;;;;2.20;1.33;;;19.20;91.40;;;;;;5031656;28;20608;-39
2024/03/16 07:02:01;;;;;;;1.58;1.00;;;19.10;91.30;;;;;;5025424;28;20708;-39
2024/03/16 07:04:28;;;;;;;1.55;1.30;;;19.30;91.60;;;;;;5018427;28;20199;-39
2024/03/16 07:06:55;;;;;;;1.80;0.95;;;19.10;91.70;;;;;;5023662;28;20276;-39
2024/03/16 07:09:28;;;;;;;2.85;1.00;;;19.10;92.30;;;;;;5041117;28;20674;-40
2024/03/16 07:11:57;;;;;;;2.08;1.17;;;19.10;92.00;;;;;;5020952;28;20198;-38
2024/03/16 07:14:33;;;;;;;1.70;1.10;;;19.10;92.40;;;;;;5014877;28;20348;-39
2024/03/16 07:17:04;;;;;;;1.75;1.10;;;19.10;92.30;;;;;;5026045;28;20226;-39
2024/03/16 07:19:31;;;;;;;1.48;1.33;;;19.10;92.50;;;;;;5026102;28;20198;-39
2024/03/16 07:22:01;;;;;;;1.75;1.27;;;19.00;92.40;;;;;;5023602;28;20206;-39
2024/03/16 07:24:28;;;;;;;1.40;1.10;;;19.00;92.50;;;;;;5015628;28;20209;-39
2024/03/16 07:26:57;;;;;;;1.65;1.00;;;19.20;92.20;;;;;;5015015;28;20217;-42
2024/03/16 07:29:26;;;;;;;2.10;1.30;;;19.20;92.30;;;;;;5024308;28;20294;-38
2024/03/16 07:31:55;;;;;;;2.13;1.50;;;19.20;92.20;;;;;;5018929;28;20210;-40
2024/03/16 07:34:33;;;;;;;2.25;1.30;;;19.30;92.10;;;;;;5026799;28;20209;-41
2024/03/16 07:37:04;;;;;;;2.88;1.30;;;19.10;91.60;;;;;;5021670;28;20203;-39
2024/03/16 07:39:32;;;;;;;2.88;1.13;;;19.30;92.00;;;;;;5038820;28;20205;-39
2024/03/16 07:42:14;;;;;;;1.35;1.00;;;19.40;91.50;;;;;;5043006;28;20949;-40
2024/03/16 07:44:43;;;;;;;1.45;1.05;;;19.50;91.80;;;;;;5016973;28;20195;-40
2024/03/16 07:47:11;;;;;;;1.30;0.98;;;19.60;91.60;;;;;;5017057;28;20593;-40
2024/03/16 07:49:37;;;;;;;1.42;1.10;;;19.50;91.60;;;;;;5033601;28;20414;-39
2024/03/16 07:52:16;;;;;;;1.45;1.00;;;19.60;91.60;;;;;;5021967;28;20213;-40
2024/03/16 07:54:42;;;;;;;2.08;1.33;;;19.50;91.70;;;;;;5026003;28;20202;-38
2024/03/16 07:57:11;;;;;;;1.30;1.10;;;19.50;92.00;;;;;;5012764;28;20210;-40
2024/03/16 07:59:44;;;;;;;1.55;1.00;;;19.60;92.20;;;;;;5016414;28;20229;-40
2024/03/16 08:02:18;;;;;;;1.58;0.95;;;19.80;92.40;;;;;;5021809;28;20279;-40
2024/03/16 08:04:44;;;;;;;4.30;1.50;;;19.60;92.80;;;;;;5018974;28;20199;-38
2024/03/16 08:07:13;;;;;;;1.20;0.98;;;19.80;93.40;;;;;;5021973;28;20222;-41
2024/03/16 08:09:46;;;;;;;1.23;0.90;;;19.90;93.70;;;;;;5037167;28;20198;-41
2024/03/16 08:12:16;;;;;;;1.85;1.10;;;19.70;91.60;;;;;;5021394;28;20206;-40
2024/03/16 08:14:46;;;;;;;1.90;1.10;;;19.80;91.00;;;;;;5024504;28;20206;-39
2024/03/16 08:17:18;;;;;;;5.90;2.08;;;19.90;90.30;;;;;;5022411;28;20199;-40
2024/03/16 08:19:45;;;;;;;1.92;1.13;;;19.90;90.10;;;;;;5018880;28;20278;-39
2024/03/16 08:22:14;;;;;;;1.50;1.15;;;19.90;89.50;;;;;;5024042;28;20194;-40
2024/03/16 08:24:42;;;;;;;1.70;1.10;;;19.90;89.80;;;;;;5023110;28;20198;-40
2024/03/16 08:27:10;;;;;;;1.63;1.00;;;20.00;89.60;;;;;;5022084;28;20652;-40
2024/03/16 08:29:38;;;;;;;2.53;1.20;;;20.00;89.10;;;;;;5025276;28;20703;-41
2024/03/16 08:32:10;;;;;;;1.17;0.98;;;20.10;88.50;;;;;;5028404;28;20222;-40
2024/03/16 08:34:37;;;;;;;3.83;0.95;;;20.10;88.20;;;;;;5024138;28;20191;-37
2024/03/16 08:37:04;;;;;;;1.50;1.10;;;20.20;87.80;;;;;;5022867;28;20212;-39
2024/03/16 08:39:34;;;;;;;1.48;1.00;;;20.20;87.70;;;;;;5027986;28;20296;-39
2024/03/16 08:42:05;;;;;;;1.75;0.98;;;20.30;87.50;;;;;;5040687;28;20198;-40
2024/03/16 08:44:44;;;;;;;;;;;;;;;;;;;;;
2024/03/16 08:47:17;;;;;;;2.58;0.90;;;20.30;86.90;;;;;;5024269;28;20222;-41
2024/03/16 08:49:51;;;;;;;2.10;0.80;;;20.30;86.60;;;;;;5001137;28;20210;-41
2024/03/16 08:52:19;;;;;;;1.85;1.15;;;20.30;86.40;;;;;;5018240;28;20209;-37
2024/03/16 08:54:54;;;;;;;1.63;1.00;;;20.40;86.30;;;;;;5016939;28;20229;-37
2024/03/16 08:57:20;;;;;;;1.40;1.13;;;20.40;86.40;;;;;;5016867;28;20638;-40
2024/03/16 08:59:47;;;;;;;1.00;0.80;;;20.40;86.10;;;;;;5017903;28;20609;-41
2024/03/16 09:02:19;;;;;;;3.53;1.27;;;20.50;86.40;;;;;;5020802;28;20209;-41
2024/03/16 09:04:48;;;;;;;1.65;1.00;;;20.60;86.60;;;;;;5014987;28;20913;-41
2024/03/16 09:07:19;;;;;;;1.10;0.80;;;20.60;86.50;;;;;;5017608;28;20218;-39
2024/03/16 09:09:49;;;;;;;2.30;1.33;;;20.70;86.70;;;;;;5020364;28;20284;-40
2024/03/16 09:12:20;;;;;;;2.80;0.83;;;20.80;86.70;;;;;;5022289;28;20199;-41
2024/03/16 09:14:47;;;;;;;2.55;1.20;;;20.80;86.60;;;;;;5037409;28;20461;-39
2024/03/16 09:17:13;;;;;;;1.30;1.05;;;20.90;86.30;;;;;;5018400;28;20695;-39
2024/03/16 09:19:45;;;;;;;1.20;0.80;;;21.00;86.50;;;;;;5016294;28;20192;-42
2024/03/16 09:22:21;;;;;;;;;;;;;;;;;;;;;
2024/03/16 09:24:55;;;;;;;1.40;1.00;;;20.90;86.40;;;;;;5019154;28;20448;-40
2024/03/16 09:27:24;;;;;;;1.50;1.10;;;21.00;86.60;;;;;;5019291;28;20481;-38
2024/03/16 09:29:54;;;;;;;1.87;1.17;;;21.00;86.20;;;;;;5027943;28;20453;-43
2024/03/16 09:32:24;;;;;;;2.30;1.00;;;21.10;86.30;;;;;;5033887;28;20490;-40
2024/03/16 09:34:59;;;;;;;1.70;0.80;;;21.20;86.90;;;;;;5024666;28;20904;-40
2024/03/16 09:37:26;;;;;;;1.73;1.20;;;21.10;87.00;;;;;;5039007;28;20972;-39
2024/03/16 09:39:57;;;;;;;1.43;0.93;;;21.20;86.70;;;;;;5020091;28;20461;-41
2024/03/16 09:42:29;;;;;;;1.20;0.80;;;21.20;86.80;;;;;;5023117;28;20543;-39
2024/03/16 09:44:58;;;;;;;1.20;0.97;;;21.20;86.80;;;;;;5041983;28;20468;-38
2024/03/16 09:47:31;;;;;;;2.50;1.30;;;21.30;86.90;;;;;;5043382;28;20484;-40
2024/03/16 09:49:58;;;;;;;1.20;0.80;;;21.30;86.70;;;;;;5023531;28;20464;-38
2024/03/16 09:52:28;;;;;;;3.67;1.20;;;21.40;87.60;;;;;;5025919;28;20464;-40
2024/03/16 09:55:02;;;;;;;1.10;0.90;;;21.50;89.10;;;;;;5026814;28;20659;-37
2024/03/16 09:57:30;;;;;;;1.50;1.17;;;21.50;90.10;;;;;;5020338;28;20830;-40
2024/03/16 09:59:56;;;;;;;1.33;0.80;;;21.40;90.10;;;;;;5027092;28;21114;-40
2024/03/16 10:02:24;;;;;;;1.33;1.07;;;21.50;90.30;;;;;;5025428;28;20465;-40
2024/03/16 10:04:52;;;;;;;4.93;0.93;;;21.60;90.50;;;;;;5020775;28;20500;-42
2024/03/16 10:07:19;;;;;;;1.07;0.80;;;21.50;91.10;;;;;;5029310;28;20476;-38
2024/03/16 10:09:52;;;;;;;3.00;1.00;;;21.50;92.70;;;;;;5028915;28;20466;-39
2024/03/16 10:12:23;;;;;;;1.23;0.90;;;21.70;91.80;;;;;;5027183;28;20460;-42
2024/03/16 10:15:15;;;;;;;1.10;0.80;;;21.70;91.60;;;;;;5029134;28;20468;-38
2024/03/16 10:17:44;;;;;;;2.03;1.00;;;21.60;92.60;;;;;;5024989;28;20476;-40
2024/03/16 10:20:18;;;;;;;1.20;0.70;;;21.60;94.00;;;;;;5026736;28;20472;-40
2024/03/16 10:22:51;;;;;;;1.70;0.90;;;21.60;93.40;;;;;;5023866;28;20456;-40
2024/03/16 10:25:22;;;;;;;1.17;0.80;;;21.70;94.30;;;;;;5031559;28;20461;-40
2024/03/16 10:28:02;;;;;;;2.80;0.90;;;21.80;91.00;;;;;;5024433;28;20488;-40
2024/03/16 10:30:30;;;;;;;1.20;0.90;;;21.90;91.30;;;;;;5030898;28;20579;-40
2024/03/16 10:33:05;;;;;;;1.00;0.70;;;22.00;94.10;;;;;;5028511;28;20453;-40
2024/03/16 10:35:39;;;;;;;1.47;1.00;;;21.90;96.80;;;;;;5027027;28;20877;-38
2024/03/16 10:38:12;;;;;;;1.20;0.80;;;21.90;96.10;;;;;;5027565;28;20468;-39
2024/03/16 10:40:46;;;;;;;1.37;0.90;;;22.00;93.00;;;;;;5024738;28;20464;-40
2024/03/16 10:43:13;;;;;;;1.30;0.90;;;22.10;93.70;;;;;;5030098;28;20474;-38
2024/03/16 10:45:45;;;;;;;1.23;0.93;;;22.10;93.70;;;;;;5027799;28;20541;-40
2024/03/16 10:48:13;;;;;;;1.20;0.80;;;22.10;92.80;;;;;;5021135;28;20488;-39
2024/03/16 10:50:43;;;;;;;1.13;0.70;;;22.10;91.70;;;;;;5041656;28;20483;-40
2024/03/16 10:53:11;;;;;;;1.50;0.90;;;22.20;92.90;;;;;;5029971;28;20457;-40
2024/03/16 10:55:43;;;;;;;1.40;0.80;;;22.00;94.60;;;;;;5030071;28;20520;-39
2024/03/16 10:58:20;;;;;;;1.00;0.80;;;22.20;91.80;;;;;;5016435;28;20464;-39
2024/03/16 11:03:31;;;;;;;1.80;0.90;;;22.10;91.60;;;;;;5024088;28;20812;-39
2024/03/16 11:06:01;;;;;;;1.20;0.70;;;22.10;91.30;;;;;;5022189;28;21020;-40
2024/03/16 11:08:45;;;;;;;1.20;0.80;;;22.30;91.80;;;;;;5022681;28;20488;-40
2024/03/16 11:11:14;;;;;;;1.10;0.70;;;22.20;92.10;;;;;;5023547;28;20469;-37
2024/03/16 11:13:59;;;;;;;1.10;0.80;;;22.30;92.10;;;;;;5027067;28;20457;-38
2024/03/16 11:16:33;;;;;;;1.00;0.70;;;22.20;91.70;;;;;;5035518;28;20543;-40
2024/03/16 11:19:00;;;;;;;1.30;0.80;;;22.40;92.10;;;;;;5039252;28;20464;-40
2024/03/16 11:21:27;;;;;;;1.20;0.90;;;22.40;92.50;;;;;;5017978;28;20479;-39
2024/03/16 11:23:54;;;;;;;1.40;1.07;;;22.40;94.80;;;;;;5044093;28;20464;-40
2024/03/16 11:26:31;;;;;;;1.70;1.00;;;22.50;92.60;;;;;;5021114;28;20490;-40
2024/03/16 11:29:25;;;;;;;1.30;0.90;;;22.50;90.50;;;;;;5024604;28;20483;-38
2024/03/16 11:31:53;;;;;;;1.20;0.90;;;22.40;92.50;;;;;;5023380;28;20458;-40
2024/03/16 11:34:22;;;;;;;1.10;1.00;;;22.60;95.50;;;;;;5025476;28;20460;-39
2024/03/16 11:36:50;;;;;;;1.80;0.80;;;22.40;97.70;;;;;;5018733;28;20551;-38
2024/03/16 11:39:24;;;;;;;1.10;0.80;;;22.60;90.60;;;;;;5016632;28;20464;-39
2024/03/16 11:41:52;;;;;;;2.17;1.20;;;22.60;89.50;;;;;;5024999;28;20464;-39
2024/03/16 11:44:22;;;;;;;1.10;0.70;;;22.50;87.90;;;;;;5026162;28;20999;-39
2024/03/16 11:46:48;;;;;;;1.30;0.90;;;22.50;88.50;;;;;;5020042;28;20467;-39
2024/03/16 11:49:21;;;;;;;1.20;0.97;;;22.60;90.00;;;;;;5021489;28;20484;-38
2024/03/16 11:51:47;;;;;;;1.20;0.87;;;22.50;92.40;;;;;;5022229;28;21012;-38
2024/03/16 11:54:17;;;;;;;1.00;0.70;;;22.50;87.90;;;;;;5022634;28;20805;-44
2024/03/16 11:56:43;;;;;;;1.10;0.70;;;22.50;80.90;;;;;;5043755;28;20714;-37
2024/03/16 11:59:12;;;;;;;1.23;0.80;;;22.60;80.80;;;;;;5021874;28;20826;-40
2024/03/16 12:01:42;;;;;;;1.23;1.13;;;22.60;80.90;;;;;;5022800;28;20465;-41
2024/03/16 12:04:11;;;;;;;1.77;0.97;;;22.50;84.70;;;;;;5029241;28;20561;-41
2024/03/16 12:09:30;;;;;;;1.00;0.70;;;22.70;88.10;;;;;;5025549;28;20485;-41
2024/03/16 12:12:01;;;;;;;1.10;0.80;;;22.60;90.20;;;;;;5023621;28;20456;-38
2024/03/16 12:14:30;;;;;;;1.00;0.70;;;22.70;90.90;;;;;;5021911;28;21036;-40
2024/03/16 12:17:04;;;;;;;1.47;0.90;;;;;;;;;;5026544;28;20479;-41
2024/03/16 12:19:37;;;;;;;2.90;1.30;;;22.80;79.90;;;;;;5042450;28;20484;-40
2024/03/16 12:22:07;;;;;;;2.70;1.23;;;;;;;;;;5018529;28;20458;-38
2024/03/16 12:24:35;;;;;;;3.58;1.90;;;18.40;92.40;;;;;;5040677;28;20204;-40
2024/03/16 12:27:02;;;;;;;4.35;2.40;;;18.40;85.00;;;;;;5024644;28;20679;-39
2024/03/16 12:29:30;;;;;;;3.80;1.75;;;18.60;88.10;;;;;;5042038;28;20248;-40
2024/03/16 12:32:08;;;;;;;3.27;1.00;;;;;;;;;;5032903;28;20243;-39
2024/03/16 12:34:36;;;;;;;3.97;1.20;;;20.40;77.20;;;;;;5041086;28;21084;-39
2024/03/16 12:37:03;;;;;;;2.75;1.13;;;21.20;80.20;;;;;;5019560;28;20210;-38
2024/03/16 12:39:32;;;;;;;4.90;0.97;;;21.70;75.10;;;;;;5039987;28;20229;-39
2024/03/16 12:41:59;;;;;;;1.73;0.90;;;21.70;73.10;;;;;;5029109;28;20497;-40
2024/03/16 12:44:27;;;;;;;1.40;0.97;;;21.90;74.60;;;;;;5024574;28;20460;-37
2024/03/16 12:46:58;;;;;;;2.60;1.00;;;22.00;78.50;;;;;;5021841;28;20585;-36
2024/03/16 12:49:23;;;;;;;2.83;0.90;;;22.00;79.70;;;;;;5027831;28;20552;-38
2024/03/16 12:51:59;;;;;;;2.53;0.90;;;22.20;80.80;;;;;;5033671;28;20465;-40
2024/03/16 12:54:27;;;;;;;2.10;1.13;;;22.20;82.50;;;;;;5021267;28;20218;-40
2024/03/16 12:56:54;;;;;;;1.60;0.87;;;22.10;88.90;;;;;;5021161;28;20460;-39
2024/03/16 12:59:20;;;;;;;1.60;1.00;;;22.10;89.60;;;;;;5020095;28;20465;-40
2024/03/16 13:01:57;;;;;;;1.30;0.83;;;22.30;88.70;;;;;;5019405;28;20449;-39
2024/03/16 13:04:23;;;;;;;1.10;0.80;;;22.40;88.10;;;;;;5020299;28;20476;-40
2024/03/16 13:06:50;;;;;;;2.10;0.90;;;22.40;87.30;;;;;;5018591;28;20465;-37
2024/03/16 13:09:25;;;;;;;2.43;1.20;;;22.40;86.70;;;;;;5035478;28;20484;-38
2024/03/16 13:11:58;;;;;;;3.40;1.20;;;22.50;88.40;;;;;;5019193;28;20941;-39
2024/03/16 13:14:27;;;;;;;1.20;0.83;;;22.50;86.60;;;;;;5022136;28;20462;-39
2024/03/16 13:16:55;;;;;;;1.20;0.80;;;22.50;88.70;;;;;;5019285;28;20517;-38